📊 Raw Sensor Data
Showing records 49576 to 49600 of 85,122 total
| ID | Distance (ft) | Battery V | Battery A | Int Temp (°F) | Int Humid (%) | Ext Temp (°F) | Solar V | RSSI | SNR | Time Stamp |
|---|---|---|---|---|---|---|---|---|---|---|
| 35559 | 15.1 | 3.98 | -5 | 52 | 40 | 52 | 0.10 | -81 | 7 | 03/20/2025 10:15 PM |
| 35558 | 15.1 | 3.98 | -5 | 52 | 41 | 52 | 0.10 | -78 | 7 | 03/20/2025 10:00 PM |
| 35557 | 15.1 | 4.03 | -5 | 52 | 41 | 53 | 0.00 | -82 | 8 | 03/20/2025 09:45 PM |
| 35556 | 15.1 | 3.98 | -5 | 53 | 41 | 53 | 0.00 | -83 | 8 | 03/20/2025 09:30 PM |
| 35555 | 15.1 | 3.98 | -5 | 53 | 41 | 54 | 0.00 | -83 | 8 | 03/20/2025 09:15 PM |
| 35554 | 15.1 | 3.99 | -5 | 53 | 41 | 54 | 0.00 | -79 | 8 | 03/20/2025 09:00 PM |
| 35553 | 15.1 | 3.98 | -19 | 53 | 41 | 54 | 0.10 | -80 | 9 | 03/20/2025 08:45 PM |
| 35552 | 15.1 | 4.04 | -5 | 52 | 42 | 54 | 0.00 | -78 | 8 | 03/20/2025 08:30 PM |
| 35551 | 15.1 | 3.99 | -5 | 51 | 43 | 52 | 0.00 | -78 | 8 | 03/20/2025 08:15 PM |
| 35550 | 15.2 | 3.99 | -5 | 53 | 44 | 52 | 0.00 | -80 | 7 | 03/20/2025 08:00 PM |
| 35549 | 15.1 | 4.04 | -5 | 54 | 45 | 55 | 0.00 | -80 | 7 | 03/20/2025 07:45 PM |
| 35548 | 15.2 | 3.99 | -5 | 55 | 46 | 54 | 0.30 | -80 | 8 | 03/20/2025 07:30 PM |
| 35547 | 15.2 | 3.98 | -9 | 58 | 46 | 57 | 1.60 | -80 | 8 | 03/20/2025 07:15 PM |
| 35546 | 15.2 | 4.00 | 0 | 61 | 45 | 59 | 4.50 | -80 | 7 | 03/20/2025 07:00 PM |
| 35545 | 15.2 | 4.05 | 0 | 62 | 48 | 59 | 4.50 | -81 | 8 | 03/20/2025 06:45 PM |
| 35544 | 15.2 | 4.01 | 0 | 68 | 45 | 61 | 4.50 | -81 | 7 | 03/20/2025 06:30 PM |
| 35543 | 15.2 | 4.06 | 26 | 71 | 43 | 64 | 4.50 | -82 | 8 | 03/20/2025 06:15 PM |
| 35542 | 15.2 | 4.04 | 0 | 72 | 42 | 63 | 5.10 | -81 | 7 | 03/20/2025 06:00 PM |
| 35541 | 15.2 | 4.04 | 0 | 73 | 41 | 65 | 5.10 | -82 | 8 | 03/20/2025 05:45 PM |
| 35540 | 15.3 | 4.04 | 0 | 74 | 40 | 64 | 5.10 | -83 | 8 | 03/20/2025 05:30 PM |
| 35539 | 15.3 | 4.04 | 0 | 74 | 40 | 63 | 5.10 | -82 | 6 | 03/20/2025 05:15 PM |
| 35538 | 15.3 | 4.04 | 0 | 74 | 40 | 64 | 5.10 | -82 | 5 | 03/20/2025 05:00 PM |
| 35537 | 15.3 | 4.04 | 0 | 73 | 40 | 63 | 5.10 | -83 | 8 | 03/20/2025 04:45 PM |
| 35536 | 15.3 | 4.04 | 0 | 73 | 39 | 63 | 5.10 | -83 | 7 | 03/20/2025 04:30 PM |
| 35535 | 15.3 | 4.04 | 0 | 74 | 39 | 63 | 5.10 | -87 | 7 | 03/20/2025 04:15 PM |